createdAt,value
2022-07-26T00:00:40.605Z,49.41
2022-07-26T00:01:42.950Z,49.40
2022-07-26T00:02:47.896Z,49.80
2022-07-26T00:03:51.900Z,49.62
2022-07-26T00:04:54.515Z,49.64
2022-07-26T00:05:56.873Z,49.66
2022-07-26T00:06:59.150Z,49.80
2022-07-26T00:08:13.624Z,49.98
2022-07-26T00:09:15.869Z,49.92
2022-07-26T00:10:18.083Z,49.93
2022-07-26T00:11:21.251Z,50.04
2022-07-26T00:12:23.550Z,50.16
2022-07-26T00:13:30.114Z,50.16
2022-07-26T00:14:32.583Z,50.32
2022-07-26T00:15:37.485Z,50.22
2022-07-26T00:16:41.143Z,50.46
2022-07-26T00:17:43.398Z,50.27
2022-07-26T00:18:45.650Z,50.38
2022-07-26T00:19:47.879Z,50.29
2022-07-26T00:20:51.242Z,50.47
2022-07-26T00:22:13.613Z,50.40
2022-07-26T00:23:16.239Z,50.26
2022-07-26T00:24:18.518Z,50.17
2022-07-26T00:25:21.235Z,50.38
2022-07-26T00:26:23.418Z,50.53
2022-07-26T00:27:25.767Z,50.34
2022-07-26T00:28:27.999Z,50.25
2022-07-26T00:29:30.243Z,50.20
2022-07-26T00:30:33.135Z,50.33
2022-07-26T00:31:35.394Z,50.32
2022-07-26T00:32:38.522Z,50.20
2022-07-26T00:33:40.834Z,50.42
2022-07-26T00:34:43.065Z,50.57
2022-07-26T00:35:45.310Z,50.46
2022-07-26T00:36:47.569Z,50.05
2022-07-26T00:37:49.786Z,50.26
2022-07-26T00:38:53.019Z,50.39
2022-07-26T00:39:55.304Z,50.44
2022-07-26T00:40:57.656Z,50.24
2022-07-26T00:41:59.906Z,50.26
2022-07-26T00:43:03.441Z,50.07
2022-07-26T00:44:08.158Z,50.11
2022-07-26T00:45:11.689Z,50.30
2022-07-26T00:46:13.944Z,50.25
2022-07-26T00:47:16.957Z,50.22
2022-07-26T00:48:19.300Z,50.36
2022-07-26T00:49:21.587Z,50.33
2022-07-26T00:50:23.907Z,50.05
2022-07-26T00:51:26.171Z,49.97
2022-07-26T00:52:28.581Z,50.09
2022-07-26T00:53:30.977Z,50.03
2022-07-26T00:54:33.812Z,49.88
2022-07-26T00:55:36.174Z,49.91
2022-07-26T00:56:39.161Z,50.08
2022-07-26T00:57:42.500Z,50.05
2022-07-26T00:58:44.933Z,49.89
2022-07-26T00:59:47.349Z,50.03
2022-07-26T01:00:49.901Z,50.12
2022-07-26T01:01:52.231Z,49.99
2022-07-26T01:02:55.635Z,50.13
2022-07-26T01:03:57.872Z,50.14
2022-07-26T01:05:00.300Z,50.09
2022-07-26T01:06:02.962Z,50.14
2022-07-26T01:07:15.417Z,50.15
2022-07-26T01:08:17.962Z,50.24
2022-07-26T01:09:20.415Z,50.09
2022-07-26T01:10:22.716Z,50.08
2022-07-26T01:11:27.713Z,50.15
2022-07-26T01:12:29.977Z,50.08
2022-07-26T01:13:35.252Z,50.18
2022-07-26T01:14:38.256Z,50.07
2022-07-26T01:15:40.490Z,50.34
2022-07-26T01:16:44.108Z,50.47
2022-07-26T01:17:47.473Z,50.50
2022-07-26T01:18:49.714Z,50.55
2022-07-26T01:19:51.910Z,50.58
2022-07-26T01:20:54.456Z,50.53
2022-07-26T01:21:56.882Z,50.35
2022-07-26T01:22:59.065Z,50.30
2022-07-26T01:24:02.446Z,50.54
2022-07-26T01:25:05.819Z,50.51
2022-07-26T01:26:08.102Z,50.72
2022-07-26T01:27:11.235Z,50.93
2022-07-26T01:28:19.711Z,50.66
2022-07-26T01:29:23.995Z,50.60
2022-07-26T01:30:38.409Z,50.53
2022-07-26T01:31:40.745Z,50.47
2022-07-26T01:32:43.222Z,50.79
2022-07-26T01:33:45.478Z,50.81
2022-07-26T01:34:47.710Z,50.95
2022-07-26T01:35:49.943Z,51.00
2022-07-26T01:36:52.256Z,51.12
2022-07-26T01:37:54.600Z,50.79
2022-07-26T01:38:56.810Z,50.92
2022-07-26T01:39:59.018Z,50.97
2022-07-26T01:41:01.999Z,51.00
2022-07-26T01:42:05.668Z,50.72
2022-07-26T01:43:07.883Z,51.20
2022-07-26T01:44:10.475Z,50.88
2022-07-26T01:45:13.138Z,50.97
2022-07-26T01:46:15.585Z,50.81
2022-07-26T01:47:17.906Z,50.86
2022-07-26T01:48:20.505Z,50.72
2022-07-26T01:49:23.025Z,50.64
2022-07-26T01:50:25.206Z,50.76
2022-07-26T01:51:28.145Z,50.75
2022-07-26T01:52:30.394Z,50.57
2022-07-26T01:53:32.608Z,50.64
2022-07-26T01:54:34.841Z,50.90
2022-07-26T01:55:37.083Z,50.51
2022-07-26T01:56:39.362Z,51.04
2022-07-26T01:57:44.485Z,50.98
2022-07-26T01:58:46.682Z,51.13
2022-07-26T01:59:48.852Z,51.04
2022-07-26T02:00:51.110Z,50.97
2022-07-26T02:01:53.360Z,51.00
2022-07-26T02:02:55.718Z,51.14
2022-07-26T02:03:58.040Z,51.23
2022-07-26T02:05:00.328Z,51.09
2022-07-26T02:06:03.028Z,51.37
2022-07-26T02:07:12.237Z,51.29
2022-07-26T02:08:15.395Z,51.16
2022-07-26T02:09:18.254Z,51.35
2022-07-26T02:10:21.736Z,51.23
2022-07-26T02:11:24.200Z,51.53
2022-07-26T02:12:26.462Z,51.37
2022-07-26T02:13:32.874Z,51.39
2022-07-26T02:14:35.224Z,51.28
2022-07-26T02:15:37.484Z,51.16
2022-07-26T02:16:39.816Z,51.30
2022-07-26T02:17:42.631Z,51.42
2022-07-26T02:18:44.912Z,51.35
2022-07-26T02:19:47.685Z,51.30
2022-07-26T02:20:49.881Z,51.19
2022-07-26T02:21:52.106Z,51.07
2022-07-26T02:22:54.349Z,51.44
2022-07-26T02:23:56.541Z,51.14
2022-07-26T02:25:04.467Z,51.36
2022-07-26T02:26:07.507Z,51.28
2022-07-26T02:27:09.856Z,51.06
2022-07-26T02:28:12.059Z,51.14
2022-07-26T02:29:14.299Z,51.21
2022-07-26T02:30:16.591Z,51.17
2022-07-26T02:31:18.959Z,50.95
2022-07-26T02:32:21.281Z,51.31
2022-07-26T02:33:23.446Z,51.20
2022-07-26T02:34:25.945Z,51.25
2022-07-26T02:35:28.267Z,51.15
2022-07-26T02:36:30.483Z,51.05
2022-07-26T02:37:32.679Z,51.19
2022-07-26T02:38:43.008Z,51.08
2022-07-26T02:39:45.211Z,51.21
2022-07-26T02:40:47.899Z,51.18
2022-07-26T02:41:50.118Z,51.09
2022-07-26T02:42:52.345Z,50.93
2022-07-26T02:43:54.633Z,51.06
2022-07-26T02:44:56.822Z,50.79
2022-07-26T02:46:01.483Z,50.76
2022-07-26T02:47:04.816Z,50.82
2022-07-26T02:48:07.532Z,50.90
2022-07-26T02:49:09.791Z,50.90
2022-07-26T02:50:12.624Z,50.85
2022-07-26T02:51:14.809Z,50.77
2022-07-26T02:52:17.082Z,50.87
2022-07-26T02:53:19.481Z,50.84
2022-07-26T02:54:21.657Z,50.63
2022-07-26T02:55:26.386Z,50.81
2022-07-26T02:56:29.842Z,50.87
2022-07-26T02:57:45.427Z,50.66
2022-07-26T02:58:48.785Z,51.01
2022-07-26T02:59:51.039Z,50.70
2022-07-26T03:00:53.310Z,50.84
2022-07-26T03:01:55.779Z,50.77
2022-07-26T03:02:58.106Z,50.71
2022-07-26T03:04:00.293Z,50.61
2022-07-26T03:05:03.705Z,50.71
2022-07-26T03:06:06.092Z,50.86
2022-07-26T03:07:08.305Z,50.91
2022-07-26T03:08:11.725Z,50.67
2022-07-26T03:09:17.623Z,50.62
2022-07-26T03:10:20.344Z,50.58
2022-07-26T03:11:29.795Z,50.34
2022-07-26T03:12:32.077Z,50.45
2022-07-26T03:13:34.384Z,50.57
2022-07-26T03:14:37.513Z,50.57
2022-07-26T03:15:39.956Z,50.26
2022-07-26T03:16:42.173Z,50.65
2022-07-26T03:17:44.479Z,50.70
2022-07-26T03:18:46.693Z,50.34
2022-07-26T03:19:49.018Z,50.49
2022-07-26T03:20:51.280Z,50.26
2022-07-26T03:21:53.486Z,50.43
2022-07-26T03:22:55.783Z,50.13
2022-07-26T03:23:58.112Z,50.36
2022-07-26T03:25:00.361Z,50.32
2022-07-26T03:26:02.700Z,50.20
2022-07-26T03:27:04.992Z,50.16
2022-07-26T03:28:09.527Z,50.15
2022-07-26T03:29:11.717Z,50.30
2022-07-26T03:30:14.610Z,50.32
2022-07-26T03:31:16.858Z,50.08
2022-07-26T03:32:19.113Z,50.53
2022-07-26T03:33:21.287Z,50.40
2022-07-26T03:34:23.706Z,50.32
2022-07-26T03:35:26.060Z,50.47
2022-07-26T03:36:28.296Z,50.11
2022-07-26T03:37:45.096Z,50.26
2022-07-26T03:38:48.559Z,50.16
2022-07-26T03:39:51.220Z,50.42
2022-07-26T03:40:53.463Z,50.19
2022-07-26T03:41:55.671Z,50.31
2022-07-26T03:42:57.883Z,50.41
2022-07-26T03:44:00.094Z,50.31
2022-07-26T03:45:02.428Z,50.41
2022-07-26T03:46:07.531Z,50.38
2022-07-26T03:47:09.993Z,50.27
2022-07-26T03:48:12.247Z,50.34
2022-07-26T03:49:17.141Z,50.07
2022-07-26T03:50:19.620Z,50.04
2022-07-26T03:51:21.867Z,50.15
2022-07-26T03:52:24.061Z,50.05
2022-07-26T03:53:26.290Z,50.14
2022-07-26T03:54:28.547Z,50.19
2022-07-26T03:55:49.041Z,49.95
2022-07-26T03:56:51.387Z,50.30
2022-07-26T03:57:53.747Z,50.34
2022-07-26T03:59:05.122Z,49.97
2022-07-26T04:00:10.980Z,50.31
2022-07-26T04:01:13.245Z,50.14
2022-07-26T04:02:15.592Z,50.40
2022-07-26T04:03:17.848Z,50.38
2022-07-26T04:04:25.242Z,50.70
2022-07-26T04:05:27.769Z,50.93
2022-07-26T04:06:30.325Z,50.83
2022-07-26T04:07:41.998Z,50.58
2022-07-26T04:08:44.504Z,50.83
2022-07-26T04:09:52.861Z,50.55
2022-07-26T04:10:55.078Z,50.63
2022-07-26T04:11:57.335Z,50.86
2022-07-26T04:12:59.551Z,50.79
2022-07-26T04:14:02.241Z,50.35
2022-07-26T04:15:05.927Z,50.59
2022-07-26T04:16:08.501Z,50.63
2022-07-26T04:17:10.781Z,50.80
2022-07-26T04:18:14.469Z,50.85
2022-07-26T04:19:16.708Z,50.56
2022-07-26T04:20:18.920Z,50.53
2022-07-26T04:21:21.389Z,50.92
2022-07-26T04:22:23.550Z,50.80
2022-07-26T04:23:26.030Z,50.85
2022-07-26T04:24:28.288Z,50.66
2022-07-26T04:25:41.065Z,50.51
2022-07-26T04:26:43.815Z,50.89
2022-07-26T04:27:46.105Z,50.66
2022-07-26T04:28:48.828Z,50.73
2022-07-26T04:29:51.048Z,50.85
2022-07-26T04:30:53.345Z,50.81
2022-07-26T04:31:55.581Z,50.71
2022-07-26T04:32:57.812Z,50.57
2022-07-26T04:34:00.014Z,50.62
2022-07-26T04:35:03.254Z,50.92
2022-07-26T04:36:08.909Z,50.90
2022-07-26T04:37:11.092Z,50.47
2022-07-26T04:38:13.374Z,50.54
2022-07-26T04:39:15.560Z,50.96
2022-07-26T04:40:21.679Z,50.98
2022-07-26T04:41:26.039Z,50.84
2022-07-26T04:42:28.224Z,50.82
2022-07-26T04:43:30.498Z,51.04
2022-07-26T04:44:35.874Z,50.91
2022-07-26T04:45:40.752Z,50.92
2022-07-26T04:46:45.185Z,50.85
2022-07-26T04:47:50.441Z,50.77
2022-07-26T04:48:52.803Z,50.84
2022-07-26T04:49:55.015Z,50.95
2022-07-26T04:50:57.284Z,50.91
2022-07-26T04:51:59.728Z,50.98
2022-07-26T04:53:03.085Z,50.77
2022-07-26T04:54:05.631Z,51.02
2022-07-26T04:55:09.397Z,50.87
2022-07-26T04:56:12.546Z,51.00
2022-07-26T04:57:14.754Z,50.86
2022-07-26T04:58:20.108Z,51.24
2022-07-26T04:59:22.464Z,51.19
2022-07-26T05:00:25.257Z,51.03
2022-07-26T05:01:27.638Z,50.84
2022-07-26T05:02:29.983Z,51.23
2022-07-26T05:03:32.706Z,50.95
2022-07-26T05:04:34.901Z,50.83
2022-07-26T05:05:37.233Z,51.22
2022-07-26T05:06:39.500Z,51.07
2022-07-26T05:07:47.221Z,50.89
2022-07-26T05:08:49.453Z,50.92
2022-07-26T05:09:51.720Z,51.23
2022-07-26T05:10:55.900Z,51.10
2022-07-26T05:11:58.377Z,51.23
2022-07-26T05:13:01.432Z,51.16
2022-07-26T05:14:03.834Z,51.37
2022-07-26T05:15:06.873Z,51.42
2022-07-26T05:16:15.978Z,51.45
2022-07-26T05:17:18.219Z,51.08
2022-07-26T05:18:23.352Z,51.02
2022-07-26T05:19:25.867Z,51.40
2022-07-26T05:20:28.217Z,51.27
2022-07-26T05:21:33.562Z,51.38
2022-07-26T05:22:39.105Z,51.21
2022-07-26T05:23:41.467Z,51.07
2022-07-26T05:24:43.708Z,51.01
2022-07-26T05:25:45.952Z,51.09
2022-07-26T05:26:48.183Z,51.17
2022-07-26T05:27:50.341Z,51.14
2022-07-26T05:28:52.610Z,51.08
2022-07-26T05:29:56.056Z,51.08
2022-07-26T05:30:58.325Z,51.20
2022-07-26T05:32:03.134Z,51.02
2022-07-26T05:33:05.353Z,50.86
2022-07-26T05:34:08.494Z,51.06
2022-07-26T05:35:11.236Z,50.61
2022-07-26T05:36:13.512Z,50.71
2022-07-26T05:37:15.845Z,50.73
2022-07-26T05:38:20.996Z,50.60
2022-07-26T05:39:23.285Z,50.50
2022-07-26T05:40:25.555Z,50.78
2022-07-26T05:41:27.814Z,50.63
2022-07-26T05:42:32.385Z,50.57
2022-07-26T05:43:43.765Z,50.64
2022-07-26T05:44:45.959Z,50.64
2022-07-26T05:45:51.691Z,50.67
2022-07-26T05:46:53.900Z,50.55
2022-07-26T05:47:56.442Z,50.60
2022-07-26T05:48:58.720Z,50.57
2022-07-26T05:50:02.013Z,50.49
2022-07-26T05:51:04.309Z,50.56
2022-07-26T05:52:06.535Z,50.50
2022-07-26T05:53:08.752Z,50.42
2022-07-26T05:54:11.377Z,50.41
2022-07-26T05:55:14.160Z,50.33
2022-07-26T05:56:16.357Z,49.95
2022-07-26T05:57:18.601Z,50.29
2022-07-26T05:58:20.826Z,49.93
2022-07-26T05:59:23.043Z,49.70
2022-07-26T06:00:25.547Z,49.78
2022-07-26T06:01:32.744Z,49.77
2022-07-26T06:02:35.359Z,49.46
2022-07-26T06:03:37.581Z,49.32
2022-07-26T06:04:40.875Z,49.03
2022-07-26T06:05:43.101Z,48.81
2022-07-26T06:06:45.582Z,48.60
2022-07-26T06:07:47.820Z,48.23
2022-07-26T06:08:50.161Z,47.92
2022-07-26T06:09:52.340Z,47.84
2022-07-26T06:10:57.773Z,47.54
2022-07-26T06:11:59.980Z,47.25
2022-07-26T06:13:02.205Z,46.98
2022-07-26T06:14:04.398Z,46.85
2022-07-26T06:15:15.426Z,46.79
2022-07-26T06:16:18.346Z,46.65
2022-07-26T06:17:20.738Z,46.19
2022-07-26T06:18:23.139Z,46.39
2022-07-26T06:19:25.574Z,45.78
2022-07-26T06:20:27.780Z,45.82
2022-07-26T06:21:30.004Z,45.76
2022-07-26T06:22:32.234Z,45.68
2022-07-26T06:23:35.254Z,45.60
2022-07-26T06:24:37.553Z,45.41
2022-07-26T06:25:39.875Z,45.43
2022-07-26T06:26:46.605Z,44.92
2022-07-26T06:27:48.809Z,45.09
2022-07-26T06:28:53.971Z,44.85
2022-07-26T06:29:56.168Z,44.89
2022-07-26T06:30:58.559Z,44.75
2022-07-26T06:32:01.015Z,44.62
2022-07-26T06:33:04.050Z,44.30
2022-07-26T06:34:10.084Z,44.02
2022-07-26T06:35:13.995Z,44.08
2022-07-26T06:36:16.254Z,43.89
2022-07-26T06:37:18.651Z,43.68
2022-07-26T06:38:20.841Z,43.29
2022-07-26T06:39:23.197Z,43.41
2022-07-26T06:40:25.890Z,43.17
2022-07-26T06:41:28.158Z,43.20
2022-07-26T06:42:30.446Z,43.14
2022-07-26T06:43:32.695Z,42.73
2022-07-26T06:44:35.335Z,42.43
2022-07-26T06:45:37.667Z,42.16
2022-07-26T06:46:42.764Z,42.15
2022-07-26T06:47:45.119Z,41.85
2022-07-26T06:48:52.527Z,41.60
2022-07-26T06:49:58.101Z,41.48
2022-07-26T06:51:02.867Z,41.42
2022-07-26T06:52:05.528Z,41.43
2022-07-26T06:53:07.759Z,41.39
2022-07-26T06:54:10.102Z,41.56
2022-07-26T06:55:13.083Z,41.42
2022-07-26T06:56:17.963Z,41.29
2022-07-26T06:57:21.347Z,41.36
2022-07-26T06:58:23.556Z,41.35
2022-07-26T06:59:25.731Z,41.48
2022-07-26T07:00:28.588Z,41.31
2022-07-26T07:01:57.701Z,41.28
2022-07-26T07:02:53.770Z,41.00
2022-07-26T07:03:59.038Z,40.96
2022-07-26T07:05:01.757Z,40.75
2022-07-26T07:06:04.225Z,40.74
2022-07-26T07:07:06.594Z,40.64
2022-07-26T07:08:11.959Z,40.38
2022-07-26T07:09:15.264Z,40.11
2022-07-26T07:10:19.323Z,40.42
2022-07-26T07:11:26.109Z,39.92
2022-07-26T07:12:28.307Z,39.83
2022-07-26T07:13:30.615Z,39.57
2022-07-26T07:14:33.401Z,39.48
2022-07-26T07:15:38.290Z,39.47
2022-07-26T07:16:40.551Z,39.21
2022-07-26T07:17:42.830Z,39.15
2022-07-26T07:18:45.191Z,39.10
2022-07-26T07:19:47.446Z,38.98
2022-07-26T07:20:49.704Z,38.86
2022-07-26T07:21:52.431Z,38.58
2022-07-26T07:22:54.789Z,38.33
2022-07-26T07:23:57.069Z,38.02
2022-07-26T07:24:59.567Z,37.60
2022-07-26T07:26:02.037Z,37.52
2022-07-26T07:27:04.870Z,37.41
2022-07-26T07:28:08.882Z,36.99
2022-07-26T07:29:14.600Z,36.91
2022-07-26T07:30:17.706Z,36.94
2022-07-26T07:31:21.962Z,36.59
2022-07-26T07:32:25.901Z,35.93
2022-07-26T07:33:36.450Z,35.76
2022-07-26T07:34:49.341Z,35.18
2022-07-26T07:35:52.412Z,34.96
2022-07-26T07:36:54.751Z,34.65
2022-07-26T07:37:57.294Z,34.59
2022-07-26T07:39:04.429Z,34.72
2022-07-26T07:40:09.733Z,34.41
2022-07-26T07:41:12.302Z,34.26
2022-07-26T07:42:14.632Z,34.46
2022-07-26T07:43:17.242Z,34.42
2022-07-26T07:44:19.498Z,34.31
2022-07-26T07:45:22.242Z,33.69
2022-07-26T07:46:33.579Z,33.57
2022-07-26T07:47:36.111Z,33.52
2022-07-26T07:48:45.048Z,33.20
2022-07-26T07:49:49.773Z,33.12
2022-07-26T07:50:55.015Z,32.90
2022-07-26T07:51:57.288Z,32.81
2022-07-26T07:52:59.646Z,32.79
2022-07-26T07:54:05.895Z,32.59
2022-07-26T07:55:40.689Z,32.12
2022-07-26T07:56:33.635Z,32.20
2022-07-26T07:57:37.059Z,31.76
2022-07-26T07:58:39.462Z,32.02
2022-07-26T07:59:41.900Z,32.07
2022-07-26T08:00:48.062Z,31.91
2022-07-26T08:01:51.100Z,32.24
2022-07-26T08:02:53.519Z,31.35
2022-07-26T08:03:55.724Z,31.03
2022-07-26T08:05:01.731Z,31.41
2022-07-26T08:06:22.391Z,31.30
2022-07-26T08:07:24.886Z,30.96
2022-07-26T08:08:37.130Z,30.98
2022-07-26T08:09:43.045Z,30.73
2022-07-26T08:10:51.823Z,30.58
2022-07-26T08:11:54.689Z,29.88
2022-07-26T08:12:56.938Z,30.02
2022-07-26T08:13:59.194Z,30.25
2022-07-26T08:15:01.630Z,30.34
2022-07-26T08:16:09.942Z,30.03
2022-07-26T08:17:12.179Z,29.96
2022-07-26T08:18:14.365Z,29.53
2022-07-26T08:19:16.856Z,29.61
2022-07-26T08:20:24.825Z,29.61
2022-07-26T08:21:28.239Z,29.51
2022-07-26T08:22:31.466Z,29.72
2022-07-26T08:23:34.295Z,29.67
2022-07-26T08:24:39.075Z,29.66
2022-07-26T08:25:55.146Z,29.79
2022-07-26T08:26:58.145Z,29.71
2022-07-26T08:28:03.505Z,29.96
2022-07-26T08:29:06.255Z,29.93
2022-07-26T08:30:08.943Z,29.89
2022-07-26T08:31:11.829Z,30.03
2022-07-26T08:32:14.233Z,30.55
2022-07-26T08:33:23.749Z,30.42
2022-07-26T08:34:28.937Z,30.57
2022-07-26T08:35:31.217Z,30.42
2022-07-26T08:36:33.502Z,30.05
2022-07-26T08:37:35.719Z,30.08
2022-07-26T08:38:38.943Z,29.78
2022-07-26T08:39:41.198Z,29.77
2022-07-26T08:40:43.410Z,29.98
2022-07-26T08:41:45.728Z,29.88
2022-07-26T08:42:52.916Z,29.74
2022-07-26T08:43:55.184Z,29.67
2022-07-26T08:44:57.584Z,29.60
2022-07-26T08:46:03.686Z,29.54
2022-07-26T08:47:06.047Z,29.94
2022-07-26T08:48:17.864Z,29.47
2022-07-26T08:49:20.732Z,29.70
2022-07-26T08:50:23.905Z,29.94
2022-07-26T08:51:26.804Z,29.82
2022-07-26T08:52:32.313Z,30.01
2022-07-26T08:53:39.161Z,29.87
2022-07-26T08:54:45.735Z,30.23
2022-07-26T08:56:06.574Z,30.40
2022-07-26T08:57:09.624Z,30.82
2022-07-26T08:58:13.251Z,30.56
2022-07-26T08:59:22.129Z,30.19
2022-07-26T09:00:29.803Z,30.12
2022-07-26T09:01:32.214Z,29.91
2022-07-26T09:02:41.684Z,29.94
2022-07-26T09:03:45.639Z,30.04
2022-07-26T09:04:48.116Z,30.00
2022-07-26T09:05:50.345Z,29.96
2022-07-26T09:07:07.790Z,30.40
2022-07-26T09:08:29.849Z,30.02
2022-07-26T09:09:59.543Z,29.68
2022-07-26T09:11:02.592Z,29.14
2022-07-26T09:12:17.002Z,29.08
2022-07-26T09:13:20.316Z,28.93
2022-07-26T09:14:23.119Z,28.97
2022-07-26T09:15:28.322Z,28.31
2022-07-26T09:16:33.356Z,28.79
2022-07-26T09:17:45.959Z,28.01
2022-07-26T09:18:48.499Z,27.86
2022-07-26T09:20:29.590Z,28.09
2022-07-26T09:21:36.167Z,27.41
2022-07-26T09:22:39.975Z,27.32
2022-07-26T09:23:42.526Z,27.26
2022-07-26T09:24:48.057Z,26.73
2022-07-26T09:25:50.299Z,26.62
2022-07-26T09:27:11.433Z,27.40
2022-07-26T09:28:29.731Z,27.50
2022-07-26T09:29:46.610Z,27.39
2022-07-26T09:31:07.324Z,27.60
2022-07-26T09:32:12.102Z,27.35
2022-07-26T09:33:17.750Z,27.53
2022-07-26T09:34:26.281Z,28.02
2022-07-26T09:35:51.400Z,27.55
2022-07-26T09:36:54.939Z,27.49
2022-07-26T09:37:57.594Z,27.87
2022-07-26T09:39:02.430Z,27.87
2022-07-26T09:40:10.275Z,27.93
2022-07-26T09:41:30.842Z,28.07
2022-07-26T09:42:33.199Z,27.29
2022-07-26T09:43:44.548Z,27.69
2022-07-26T09:44:47.962Z,27.37
2022-07-26T09:46:08.514Z,27.64
2022-07-26T09:47:10.794Z,27.80
2022-07-26T09:48:13.319Z,27.54
2022-07-26T09:49:20.037Z,27.75
2022-07-26T09:50:25.229Z,27.48
2022-07-26T09:51:42.168Z,27.98
2022-07-26T09:53:08.966Z,27.71
2022-07-26T09:54:12.889Z,27.38
2022-07-26T09:55:17.009Z,27.46
2022-07-26T09:56:19.931Z,27.32
2022-07-26T09:57:22.167Z,26.68
2022-07-26T09:58:24.807Z,26.75
2022-07-26T09:59:28.554Z,26.60
2022-07-26T10:00:31.400Z,26.51
2022-07-26T10:01:33.657Z,26.25
2022-07-26T10:02:35.949Z,26.16
2022-07-26T10:03:38.245Z,25.92
2022-07-26T10:04:43.145Z,25.83
2022-07-26T10:05:45.371Z,25.86
2022-07-26T10:06:48.472Z,25.74
2022-07-26T10:07:51.661Z,25.87
2022-07-26T10:08:53.937Z,25.92
2022-07-26T10:10:04.687Z,26.14
2022-07-26T10:11:09.512Z,26.02
2022-07-26T10:12:17.684Z,26.12
2022-07-26T10:13:23.207Z,25.89
2022-07-26T10:14:46.234Z,26.16
2022-07-26T10:15:50.413Z,25.50
2022-07-26T10:16:52.644Z,25.56
2022-07-26T10:17:55.236Z,25.86
2022-07-26T10:18:58.723Z,25.81
2022-07-26T10:20:09.260Z,25.90
2022-07-26T10:21:31.844Z,26.04
2022-07-26T10:22:52.091Z,25.96
2022-07-26T10:23:59.477Z,25.49
2022-07-26T10:25:20.001Z,25.61
2022-07-26T10:26:31.303Z,25.14
2022-07-26T10:27:41.595Z,25.08
2022-07-26T10:28:43.831Z,25.13
2022-07-26T10:29:46.057Z,25.26
2022-07-26T10:30:48.433Z,24.92
2022-07-26T10:32:13.867Z,25.67
2022-07-26T10:33:24.652Z,25.56
2022-07-26T10:34:32.118Z,25.47
2022-07-26T10:35:34.270Z,25.31
2022-07-26T10:36:39.097Z,25.10
2022-07-26T10:37:58.482Z,25.59
2022-07-26T10:39:07.397Z,25.57
2022-07-26T10:40:21.267Z,25.59
2022-07-26T10:41:39.543Z,25.67
2022-07-26T10:42:45.717Z,25.06
2022-07-26T10:44:11.201Z,25.50
2022-07-26T10:45:19.611Z,25.13
2022-07-26T10:46:23.524Z,24.71
2022-07-26T10:47:25.779Z,24.64
2022-07-26T10:48:29.449Z,25.01
2022-07-26T10:49:40.639Z,25.15
2022-07-26T10:50:48.420Z,24.57
2022-07-26T10:52:10.301Z,24.58
2022-07-26T10:53:23.424Z,24.74
2022-07-26T10:54:25.630Z,24.58
2022-07-26T10:55:27.825Z,24.36
2022-07-26T10:56:33.318Z,24.63
2022-07-26T10:57:41.697Z,24.63
2022-07-26T10:58:44.234Z,24.87
2022-07-26T10:59:55.821Z,25.18
2022-07-26T11:01:01.001Z,25.04
2022-07-26T11:02:06.591Z,24.77
2022-07-26T11:03:09.114Z,24.88
2022-07-26T11:04:24.934Z,25.07
2022-07-26T11:05:34.768Z,24.65
2022-07-26T11:06:39.522Z,24.42
2022-07-26T11:07:59.926Z,25.36
2022-07-26T11:09:10.797Z,25.25
2022-07-26T11:10:16.029Z,25.14
2022-07-26T11:11:29.210Z,25.34
2022-07-26T11:12:31.417Z,25.33
2022-07-26T11:13:36.547Z,25.08
2022-07-26T11:14:38.788Z,25.30
2022-07-26T11:15:49.943Z,25.23
2022-07-26T11:16:52.185Z,25.33
2022-07-26T11:18:28.387Z,25.40
2022-07-26T11:19:30.597Z,25.30
2022-07-26T11:20:33.134Z,25.33
2022-07-26T11:21:35.368Z,25.53
2022-07-26T11:22:37.624Z,25.79
2022-07-26T11:23:47.419Z,25.93
2022-07-26T11:24:49.625Z,25.66
2022-07-26T11:26:02.459Z,25.88
2022-07-26T11:27:05.301Z,25.75
2022-07-26T11:28:08.310Z,25.87
2022-07-26T11:29:14.293Z,25.75
2022-07-26T11:30:19.957Z,25.90
2022-07-26T11:31:49.688Z,25.74
2022-07-26T11:32:53.925Z,25.82
2022-07-26T11:33:59.408Z,25.86
2022-07-26T11:35:04.116Z,25.71
2022-07-26T11:36:07.039Z,25.90
2022-07-26T11:37:09.268Z,25.81
2022-07-26T11:38:12.574Z,25.61
2022-07-26T11:39:20.870Z,25.77
2022-07-26T11:40:42.735Z,26.01
2022-07-26T11:41:45.091Z,25.85
2022-07-26T11:43:01.355Z,26.34
2022-07-26T11:44:04.245Z,25.55
2022-07-26T11:45:09.964Z,25.80
2022-07-26T11:46:12.334Z,25.91
2022-07-26T11:47:16.843Z,25.52
2022-07-26T11:48:19.073Z,25.17
2022-07-26T11:49:41.356Z,25.16
2022-07-26T11:50:47.027Z,25.12
2022-07-26T11:51:56.042Z,25.09
2022-07-26T11:53:20.996Z,25.15
2022-07-26T11:54:25.696Z,24.46
2022-07-26T11:55:31.442Z,24.50
2022-07-26T11:56:34.624Z,24.64
2022-07-26T11:57:37.166Z,24.27
2022-07-26T11:58:41.128Z,24.19
2022-07-26T11:59:45.812Z,24.39
2022-07-26T12:00:48.116Z,24.44
2022-07-26T12:01:53.123Z,24.44
2022-07-26T12:02:57.055Z,24.08
2022-07-26T12:03:59.423Z,24.66
2022-07-26T12:05:23.044Z,24.90
2022-07-26T12:06:27.287Z,24.61
2022-07-26T12:07:29.622Z,24.74
2022-07-26T12:08:46.402Z,24.87
2022-07-26T12:09:51.595Z,24.70
2022-07-26T12:10:55.057Z,24.44
2022-07-26T12:11:57.931Z,24.59
2022-07-26T12:13:14.626Z,24.96
2022-07-26T12:14:26.198Z,24.68
2022-07-26T12:15:28.772Z,24.29
2022-07-26T12:16:37.135Z,24.63
2022-07-26T12:17:39.399Z,24.46
2022-07-26T12:18:51.661Z,24.50
2022-07-26T12:19:54.810Z,24.39
2022-07-26T12:21:04.963Z,24.46
2022-07-26T12:22:20.904Z,23.88
2022-07-26T12:23:30.699Z,23.80
2022-07-26T12:24:43.257Z,23.41
2022-07-26T12:25:50.434Z,23.49
2022-07-26T12:27:07.580Z,23.63
2022-07-26T12:28:09.783Z,23.25
2022-07-26T12:29:27.254Z,23.16
2022-07-26T12:30:35.868Z,23.21
2022-07-26T12:31:40.492Z,23.11
2022-07-26T12:32:45.010Z,23.54
2022-07-26T12:33:49.235Z,23.88
2022-07-26T12:35:05.028Z,24.18
2022-07-26T12:36:27.922Z,23.94
2022-07-26T12:37:40.277Z,23.96
2022-07-26T12:38:44.195Z,23.61
2022-07-26T12:40:09.694Z,24.11
2022-07-26T12:41:13.729Z,23.95
2022-07-26T12:42:33.554Z,23.89
2022-07-26T12:43:42.996Z,23.85
2022-07-26T12:44:51.544Z,23.88
2022-07-26T12:45:53.830Z,23.62
2022-07-26T12:46:56.073Z,23.77
2022-07-26T12:48:03.614Z,23.90
2022-07-26T12:49:08.194Z,23.84
2022-07-26T12:50:12.735Z,23.71
2022-07-26T12:51:15.015Z,23.78
2022-07-26T12:52:20.084Z,23.85
2022-07-26T12:53:22.357Z,23.64
2022-07-26T12:54:29.419Z,23.75
2022-07-26T12:55:32.631Z,24.17
2022-07-26T12:56:37.794Z,24.03
2022-07-26T12:57:41.431Z,24.43
2022-07-26T12:58:49.728Z,24.55
2022-07-26T12:59:51.925Z,24.35
2022-07-26T13:00:54.138Z,24.18
2022-07-26T13:01:56.564Z,24.16
2022-07-26T13:02:58.973Z,24.31
2022-07-26T13:04:01.313Z,24.33
2022-07-26T13:05:04.617Z,24.39
2022-07-26T13:06:09.491Z,24.46
2022-07-26T13:07:16.473Z,24.76
2022-07-26T13:08:19.600Z,24.83
2022-07-26T13:09:24.231Z,24.63
2022-07-26T13:10:34.145Z,24.67
2022-07-26T13:11:37.491Z,24.87
2022-07-26T13:12:40.791Z,24.83
2022-07-26T13:13:43.007Z,24.90
2022-07-26T13:14:48.239Z,25.04
2022-07-26T13:15:55.735Z,25.01
2022-07-26T13:16:58.090Z,25.21
2022-07-26T13:18:02.014Z,25.44
2022-07-26T13:19:04.364Z,25.13
2022-07-26T13:20:07.124Z,25.51
2022-07-26T13:21:09.353Z,25.34
2022-07-26T13:22:11.564Z,25.31
2022-07-26T13:23:18.410Z,25.66
2022-07-26T13:24:25.934Z,25.93
2022-07-26T13:25:33.516Z,26.32
2022-07-26T13:26:40.560Z,26.41
2022-07-26T13:27:44.896Z,26.60
2022-07-26T13:28:49.685Z,26.54
2022-07-26T13:29:52.228Z,26.57
2022-07-26T13:30:54.507Z,26.72
2022-07-26T13:31:58.145Z,26.93
2022-07-26T13:33:01.400Z,26.90
2022-07-26T13:34:05.244Z,26.94
2022-07-26T13:35:07.912Z,27.15
2022-07-26T13:36:10.135Z,27.26
2022-07-26T13:37:12.791Z,27.09
2022-07-26T13:38:15.086Z,27.38
2022-07-26T13:39:17.973Z,27.45
2022-07-26T13:40:20.164Z,27.49
2022-07-26T13:41:25.551Z,27.88
2022-07-26T13:42:30.638Z,27.72
2022-07-26T13:43:32.988Z,27.92
2022-07-26T13:44:35.193Z,27.82
2022-07-26T13:45:37.469Z,27.88
2022-07-26T13:46:39.938Z,27.96
2022-07-26T13:47:42.223Z,28.00
2022-07-26T13:49:00.058Z,28.11
2022-07-26T13:50:03.907Z,28.35
2022-07-26T13:51:12.022Z,28.20
2022-07-26T13:52:16.759Z,28.13
2022-07-26T13:53:19.292Z,28.33
2022-07-26T13:54:23.616Z,28.18
2022-07-26T13:55:26.438Z,28.35
2022-07-26T13:56:29.704Z,28.50